Time;durP1;ratioP1;P1;durP2;ratioP2;P2;SDS_P1;SDS_P2;PMS_P1;PMS_P2;Temp;Humidity;BMP_temperature;BMP_pressure;BME280_temperature;BME280_humidity;BME280_pressure;Samples;Min_cycle;Max_cycle;Signal;HPM_P1;HPM_P2
2022/01/14 00:02:18;;;;;;;63.97;19.80;;;3.60;99.90;;;;;;5077146;28;20051;-62
2022/01/14 00:04:44;;;;;;;73.88;19.15;;;3.60;99.90;;;;;;5076821;28;20052;-62
2022/01/14 00:07:10;;;;;;;41.53;19.50;;;3.40;99.90;;;;;;5077100;28;20395;-62
2022/01/14 00:09:37;;;;;;;62.67;19.42;;;3.40;99.90;;;;;;5076302;28;20036;-62
2022/01/14 00:12:10;;;;;;;83.78;21.58;;;3.40;99.90;;;;;;5077053;28;20044;-63
2022/01/14 00:14:39;;;;;;;80.00;21.45;;;3.40;99.90;;;;;;5076883;28;20041;-62
2022/01/14 00:17:06;;;;;;;80.30;20.73;;;3.60;99.90;;;;;;5076991;28;20028;-63
2022/01/14 00:19:33;;;;;;;72.68;21.73;;;3.50;99.90;;;;;;5077244;28;20036;-62
2022/01/14 00:22:04;;;;;;;104.72;21.23;;;3.40;99.90;;;;;;5076233;28;20358;-63
2022/01/14 00:31:38;;;;;;;61.60;20.15;;;3.30;99.90;;;;;;5076929;28;20025;-63
2022/01/14 00:33:08;;;;;;;64.75;19.33;;;3.30;99.90;;;;;;5077116;28;20033;-62
2022/01/14 00:35:31;;;;;;;59.38;21.58;;;3.20;99.90;;;;;;5076403;28;20139;-62
2022/01/14 00:37:57;;;;;;;77.65;20.30;;;3.20;99.90;;;;;;5076617;28;20428;-62
2022/01/14 00:40:24;;;;;;;81.82;19.23;;;3.10;99.90;;;;;;5076851;28;20029;-62
2022/01/14 00:42:50;;;;;;;81.40;19.77;;;3.00;99.90;;;;;;5076401;28;20029;-62
2022/01/14 00:45:17;;;;;;;70.00;21.27;;;2.90;99.90;;;;;;5076713;28;20036;-62
2022/01/14 00:47:43;;;;;;;58.47;19.48;;;2.90;99.90;;;;;;5076163;28;20415;-64
2022/01/14 00:50:13;;;;;;;74.78;24.33;;;2.90;99.90;;;;;;5076595;28;20094;-63
2022/01/14 00:52:41;;;;;;;71.28;22.55;;;3.00;99.90;;;;;;5077195;28;20291;-62
2022/01/14 00:55:08;;;;;;;60.67;21.48;;;3.30;99.90;;;;;;5076584;28;20052;-62
2022/01/14 01:00:24;;;;;;;40.90;20.52;;;3.60;99.90;;;;;;5076516;28;20086;-63
2022/01/14 01:02:50;;;;;;;69.65;20.35;;;3.60;99.90;;;;;;5076632;28;20388;-62
2022/01/14 01:05:17;;;;;;;84.57;20.45;;;3.40;99.90;;;;;;5076758;28;20036;-62
2022/01/14 01:07:49;;;;;;;49.72;20.05;;;3.40;99.90;;;;;;5076369;28;20047;-62
2022/01/14 01:10:17;;;;;;;56.43;20.53;;;3.50;99.90;;;;;;5076561;28;20036;-63
2022/01/14 01:13:29;;;;;;;64.65;18.98;;;3.30;99.90;;;;;;5076424;28;20048;-62
2022/01/14 01:15:32;;;;;;;46.92;20.17;;;3.20;99.90;;;;;;5070789;28;20115;-62
2022/01/14 01:17:58;;;;;;;57.70;20.48;;;3.20;99.90;;;;;;5078873;28;20113;-62
2022/01/14 01:20:24;;;;;;;77.90;21.10;;;3.20;99.90;;;;;;5080341;28;20036;-62
2022/01/14 01:22:53;;;;;;;60.67;21.75;;;3.20;99.90;;;;;;5079394;28;20281;-62
2022/01/14 01:25:46;;;;;;;58.97;21.00;;;3.10;99.90;;;;;;5079290;28;20383;-63
2022/01/14 01:28:12;;;;;;;55.45;21.50;;;3.10;99.90;;;;;;5080402;28;20105;-62
2022/01/14 01:31:35;;;;;;;53.33;20.20;;;3.10;99.90;;;;;;5080069;28;20039;-62
2022/01/14 01:33:24;;;;;;;85.55;20.92;;;3.20;99.90;;;;;;5072593;28;20040;-62
2022/01/14 01:35:50;;;;;;;56.80;20.75;;;3.00;99.90;;;;;;5079909;28;20025;-64
2022/01/14 01:38:17;;;;;;;75.03;21.65;;;3.00;99.90;;;;;;5079690;28;20408;-62
2022/01/14 01:40:46;;;;;;;43.88;19.92;;;2.90;99.90;;;;;;5079853;28;20037;-62
2022/01/14 01:43:12;;;;;;;81.88;22.75;;;2.90;99.90;;;;;;5079312;28;20408;-61
2022/01/14 01:45:39;;;;;;;151.90;23.35;;;2.90;99.90;;;;;;5079708;28;20120;-62
2022/01/14 01:48:05;;;;;;;44.42;21.70;;;3.00;99.90;;;;;;5079638;28;20032;-62
2022/01/14 01:50:32;;;;;;;45.95;22.00;;;3.20;99.90;;;;;;5079501;28;20075;-62
2022/01/14 01:52:58;;;;;;;70.20;21.98;;;3.20;99.90;;;;;;5079648;28;20093;-62
2022/01/14 01:55:24;;;;;;;63.25;21.25;;;3.30;99.90;;;;;;5079688;28;20025;-62
2022/01/14 01:57:52;;;;;;;47.92;19.77;;;3.10;99.90;;;;;;5079861;28;20063;-62
2022/01/14 02:00:22;;;;;;;79.63;22.73;;;3.00;99.90;;;;;;5079427;28;20037;-61
2022/01/14 02:02:49;;;;;;;78.97;21.95;;;2.90;99.90;;;;;;5079383;28;20032;-62
2022/01/14 02:05:16;;;;;;;49.08;20.95;;;3.00;99.90;;;;;;5079281;28;20126;-62
2022/01/14 02:07:43;;;;;;;54.55;21.85;;;3.10;99.90;;;;;;5079322;28;20296;-62
2022/01/14 02:10:09;;;;;;;69.20;21.65;;;3.00;99.90;;;;;;5079211;28;20020;-61
2022/01/14 02:12:46;;;;;;;45.15;20.83;;;2.90;99.90;;;;;;5079468;28;20350;-61
2022/01/14 02:15:26;;;;;;;64.55;20.20;;;2.90;99.90;;;;;;5078438;28;20039;-61
2022/01/14 02:23:05;;;;;;;52.13;20.63;;;2.60;99.90;;;;;;5079335;28;20308;-62
2022/01/14 02:25:32;;;;;;;46.97;21.25;;;2.50;99.90;;;;;;5078816;28;20044;-62
2022/01/14 02:28:07;;;;;;;58.53;22.05;;;2.60;99.90;;;;;;5079292;28;20430;-62
2022/01/14 02:30:35;;;;;;;59.95;21.48;;;2.60;99.90;;;;;;5078733;28;20131;-62
2022/01/14 02:33:01;;;;;;;48.78;21.02;;;2.50;99.90;;;;;;5078791;28;20017;-62
2022/01/14 02:35:28;;;;;;;48.67;22.13;;;2.40;99.90;;;;;;5078785;28;20025;-62
2022/01/14 02:37:54;;;;;;;39.05;21.80;;;2.40;99.90;;;;;;5078583;28;20060;-63
2022/01/14 02:40:21;;;;;;;48.92;22.02;;;2.50;99.90;;;;;;5077965;28;20036;-62
2022/01/14 02:42:48;;;;;;;52.65;22.23;;;2.70;99.90;;;;;;5078600;28;20028;-63
2022/01/14 02:45:15;;;;;;;51.28;20.65;;;2.70;99.90;;;;;;5078103;28;20028;-61
2022/01/14 02:47:42;;;;;;;57.67;20.85;;;2.50;99.90;;;;;;5078760;28;20028;-62
2022/01/14 02:50:12;;;;;;;43.17;21.42;;;2.40;99.90;;;;;;5078337;28;20369;-62
2022/01/14 02:52:53;;;;;;;48.08;21.15;;;2.50;99.90;;;;;;5078306;28;20312;-62
2022/01/14 02:55:29;;;;;;;46.25;21.70;;;2.50;99.90;;;;;;5078529;28;20036;-62
2022/01/14 02:57:56;;;;;;;66.28;20.27;;;2.50;99.90;;;;;;5078327;28;20021;-62
2022/01/14 03:00:26;;;;;;;41.22;21.27;;;2.30;99.90;;;;;;5078205;28;20036;-62
2022/01/14 03:02:53;;;;;;;49.33;19.85;;;2.30;99.90;;;;;;5078524;28;20036;-62
2022/01/14 03:05:20;;;;;;;46.78;21.27;;;2.30;99.90;;;;;;5078166;28;20037;-62
2022/01/14 03:07:47;;;;;;;46.65;20.98;;;2.30;99.90;;;;;;5077352;28;20039;-62
2022/01/14 03:10:16;;;;;;;39.47;20.92;;;2.50;99.90;;;;;;5077306;28;20040;-62
2022/01/14 03:12:43;;;;;;;45.67;20.63;;;2.50;99.90;;;;;;5078125;28;20032;-62
2022/01/14 03:15:11;;;;;;;45.85;20.17;;;2.50;99.90;;;;;;5078233;28;20031;-62
2022/01/14 03:17:37;;;;;;;41.08;20.52;;;2.60;99.90;;;;;;5077916;28;20044;-62
2022/01/14 03:20:09;;;;;;;42.25;21.05;;;2.70;99.90;;;;;;5077177;28;20111;-62
2022/01/14 03:22:36;;;;;;;48.45;22.70;;;2.90;99.90;;;;;;5077784;28;20028;-62
2022/01/14 03:27:51;;;;;;;44.22;20.40;;;3.10;99.90;;;;;;5077820;28;20120;-62
2022/01/14 03:30:18;;;;;;;45.72;21.02;;;3.20;99.90;;;;;;5077607;28;20042;-62
2022/01/14 03:32:44;;;;;;;48.92;19.77;;;3.10;99.90;;;;;;5078062;28;20315;-62
2022/01/14 03:35:12;;;;;;;43.78;19.98;;;2.80;99.90;;;;;;5077579;28;20453;-62
2022/01/14 03:37:38;;;;;;;48.05;19.02;;;2.60;99.90;;;;;;5077030;28;20040;-62
2022/01/14 03:40:06;;;;;;;33.47;17.67;;;2.40;99.90;;;;;;5076864;28;20103;-61
2022/01/14 03:42:32;;;;;;;33.08;17.08;;;2.20;99.90;;;;;;5077395;28;20380;-61
2022/01/14 03:44:58;;;;;;;25.60;16.42;;;2.10;99.90;;;;;;5076636;28;20046;-62
2022/01/14 03:47:24;;;;;;;29.33;17.10;;;2.10;99.90;;;;;;5076584;28;20369;-61
2022/01/14 03:49:51;;;;;;;30.63;17.30;;;2.10;99.90;;;;;;5077605;28;20033;-61
2022/01/14 03:52:17;;;;;;;33.03;17.05;;;2.20;99.90;;;;;;5077328;28;20102;-61
2022/01/14 03:54:44;;;;;;;33.53;18.15;;;2.10;99.90;;;;;;5077271;28;20084;-61
2022/01/14 03:57:10;;;;;;;29.88;17.67;;;1.90;99.90;;;;;;5077241;28;20021;-62
2022/01/14 03:59:36;;;;;;;32.38;17.23;;;1.90;99.90;;;;;;5077161;28;20037;-61
2022/01/14 04:02:02;;;;;;;27.42;16.48;;;1.80;99.90;;;;;;5077186;28;20039;-63
2022/01/14 04:04:28;;;;;;;30.85;16.90;;;1.70;99.90;;;;;;5076493;28;20055;-62
2022/01/14 04:06:54;;;;;;;27.15;16.02;;;1.60;99.90;;;;;;5077713;28;20280;-62
2022/01/14 04:09:20;;;;;;;27.67;17.17;;;1.60;99.90;;;;;;5077269;28;20300;-62
2022/01/14 04:11:46;;;;;;;29.52;17.52;;;1.60;99.90;;;;;;5077155;28;20032;-63
2022/01/14 04:17:03;;;;;;;28.57;17.23;;;1.60;99.90;;;;;;5061259;28;20316;-63
2022/01/14 04:19:30;;;;;;;27.60;17.25;;;1.80;99.90;;;;;;5075999;28;20294;-62
2022/01/14 04:21:56;;;;;;;30.10;17.73;;;1.90;99.90;;;;;;5076948;28;20337;-62
2022/01/14 04:24:22;;;;;;;29.45;18.20;;;1.90;99.90;;;;;;5076851;28;20304;-63
2022/01/14 04:26:48;;;;;;;31.27;18.13;;;2.10;99.90;;;;;;5077285;28;20093;-62
2022/01/14 04:29:14;;;;;;;33.58;18.35;;;2.20;99.90;;;;;;5076608;28;20032;-63
2022/01/14 04:31:40;;;;;;;32.60;18.08;;;2.20;99.90;;;;;;5077134;28;20021;-62
2022/01/14 04:34:06;;;;;;;43.25;19.30;;;2.20;99.90;;;;;;5076643;28;20051;-62
2022/01/14 04:36:33;;;;;;;38.58;18.90;;;2.30;99.90;;;;;;5075832;28;20036;-62
2022/01/14 04:38:59;;;;;;;37.58;18.95;;;2.20;99.90;;;;;;5076412;28;20048;-63
2022/01/14 04:41:25;;;;;;;41.90;19.20;;;2.00;99.90;;;;;;5075892;28;20029;-62
2022/01/14 04:43:51;;;;;;;45.25;19.85;;;2.10;99.90;;;;;;5076668;28;20025;-62
2022/01/14 04:49:01;;;;;;;44.83;20.70;;;2.50;99.90;;;;;;5076643;28;20029;-62
2022/01/14 04:51:26;;;;;;;39.22;18.88;;;2.70;99.90;;;;;;5077578;28;20021;-62
2022/01/14 04:53:52;;;;;;;44.85;20.88;;;2.70;99.90;;;;;;5080590;28;20024;-63
2022/01/14 04:56:18;;;;;;;50.55;20.27;;;2.70;99.90;;;;;;5080548;28;20111;-63
2022/01/14 04:58:44;;;;;;;39.58;19.45;;;2.40;99.90;;;;;;5080493;28;20051;-63
2022/01/14 05:01:10;;;;;;;75.28;21.35;;;2.50;99.90;;;;;;5080550;28;20041;-61
2022/01/14 05:03:35;;;;;;;71.95;21.70;;;2.60;99.90;;;;;;5080455;28;20292;-62
2022/01/14 05:06:02;;;;;;;50.38;20.95;;;2.70;99.90;;;;;;5080267;28;20029;-62
2022/01/14 05:08:36;;;;;;;48.97;21.35;;;2.90;99.90;;;;;;5080292;28;20403;-62
2022/01/14 05:11:20;;;;;;;51.00;21.17;;;2.90;99.90;;;;;;5080455;28;20037;-62
2022/01/14 05:13:46;;;;;;;42.15;22.40;;;3.00;99.90;;;;;;5080236;28;20041;-62
2022/01/14 05:16:12;;;;;;;43.28;22.00;;;2.90;99.90;;;;;;5080157;28;20502;-62
2022/01/14 05:18:38;;;;;;;48.30;21.90;;;3.00;99.90;;;;;;5080223;28;20032;-62
2022/01/14 05:21:07;;;;;;;67.50;23.10;;;3.00;99.90;;;;;;5080164;28;20103;-62
2022/01/14 05:23:34;;;;;;;47.05;22.33;;;3.20;99.90;;;;;;5079489;28;20395;-62
2022/01/14 05:25:59;;;;;;;40.72;20.02;;;3.10;99.90;;;;;;5079343;28;20048;-62
2022/01/14 05:28:25;;;;;;;42.55;20.55;;;3.10;99.90;;;;;;5080225;28;20052;-62
2022/01/14 05:30:51;;;;;;;42.15;21.13;;;3.10;99.90;;;;;;5079067;28;20037;-62
2022/01/14 05:33:17;;;;;;;47.20;21.20;;;3.10;99.90;;;;;;5079857;28;20029;-62
2022/01/14 05:35:43;;;;;;;54.10;20.83;;;3.00;99.90;;;;;;5079267;28;20308;-62
2022/01/14 05:38:09;;;;;;;53.53;20.90;;;2.90;99.90;;;;;;5079958;28;20088;-62
2022/01/14 05:40:35;;;;;;;43.08;19.95;;;2.60;99.90;;;;;;5079064;28;20110;-62
2022/01/14 05:43:01;;;;;;;63.53;21.50;;;2.40;99.90;;;;;;5080001;28;20323;-63
2022/01/14 05:45:27;;;;;;;37.53;19.52;;;2.50;99.90;;;;;;5079619;28;20029;-62
2022/01/14 05:47:54;;;;;;;43.08;20.17;;;2.50;99.90;;;;;;5079610;28;20043;-62
2022/01/14 05:50:22;;;;;;;33.05;19.70;;;2.40;99.90;;;;;;5079609;28;20071;-62
2022/01/14 05:52:48;;;;;;;113.05;20.52;;;2.20;99.90;;;;;;5079450;28;20112;-63
2022/01/14 05:55:17;;;;;;;70.15;19.90;;;2.10;99.90;;;;;;5079495;28;20027;-62
2022/01/14 05:57:44;;;;;;;53.78;19.77;;;2.00;99.90;;;;;;5079400;28;20032;-62
2022/01/14 06:00:15;;;;;;;49.97;19.92;;;2.00;99.90;;;;;;5079335;28;20059;-62
2022/01/14 06:02:49;;;;;;;74.72;18.80;;;2.00;99.90;;;;;;5078925;28;20033;-63
2022/01/14 06:05:16;;;;;;;62.13;18.80;;;1.90;99.90;;;;;;5079586;28;20032;-62
2022/01/14 06:07:41;;;;;;;37.17;18.55;;;1.80;99.90;;;;;;5079183;28;20350;-62
2022/01/14 06:10:08;;;;;;;55.05;19.23;;;1.90;99.90;;;;;;5079002;28;20131;-63
2022/01/14 06:12:34;;;;;;;58.47;19.42;;;1.90;99.90;;;;;;5079141;28;20025;-64
2022/01/14 06:15:00;;;;;;;42.10;19.63;;;2.40;99.90;;;;;;5079117;28;20028;-63
2022/01/14 06:17:27;;;;;;;54.55;18.70;;;2.40;99.90;;;;;;5079080;28;20098;-63
2022/01/14 06:19:53;;;;;;;54.50;20.88;;;2.20;99.90;;;;;;5079103;28;20082;-63
2022/01/14 06:22:18;;;;;;;55.03;19.80;;;2.20;99.90;;;;;;5079112;28;20025;-63
2022/01/14 06:24:44;;;;;;;54.72;19.70;;;2.30;99.90;;;;;;5078218;28;20035;-63
2022/01/14 06:27:10;;;;;;;57.30;19.42;;;2.20;99.90;;;;;;5078181;28;20316;-63
2022/01/14 06:29:36;;;;;;;53.35;19.40;;;2.00;99.90;;;;;;5078921;28;20119;-63
2022/01/14 06:32:02;;;;;;;67.22;20.75;;;2.00;99.90;;;;;;5078715;28;20113;-63
2022/01/14 06:34:28;;;;;;;64.20;21.88;;;2.10;99.90;;;;;;5077878;28;20415;-63
2022/01/14 06:36:53;;;;;;;45.63;20.63;;;2.30;99.90;;;;;;5078782;28;20034;-64
2022/01/14 06:39:19;;;;;;;41.22;21.13;;;2.30;99.90;;;;;;5061520;28;20032;-63
2022/01/14 06:41:45;;;;;;;35.45;20.35;;;2.20;99.90;;;;;;5078561;28;20041;-63
2022/01/14 06:44:11;;;;;;;82.50;21.58;;;2.10;99.90;;;;;;5078492;28;20399;-63
2022/01/14 06:46:36;;;;;;;57.85;21.13;;;2.20;99.90;;;;;;5078529;28;20079;-63
2022/01/14 06:49:02;;;;;;;58.30;20.80;;;2.20;99.90;;;;;;5078452;28;20032;-64
2022/01/14 06:51:28;;;;;;;51.70;21.45;;;2.10;99.90;;;;;;5078375;28;20025;-63
2022/01/14 06:53:54;;;;;;;52.58;22.52;;;2.20;99.90;;;;;;5078408;28;20038;-63
2022/01/14 06:56:21;;;;;;;39.85;20.73;;;2.30;99.90;;;;;;5077492;28;20300;-63
2022/01/14 06:58:47;;;;;;;35.90;21.50;;;2.40;99.90;;;;;;5078262;28;20020;-63
2022/01/14 07:01:13;;;;;;;68.00;22.38;;;2.40;99.90;;;;;;5078274;28;20124;-64
2022/01/14 07:03:39;;;;;;;37.22;21.30;;;2.50;99.90;;;;;;5078378;28;20356;-63
2022/01/14 07:06:04;;;;;;;62.25;22.95;;;2.50;99.90;;;;;;5077294;28;20119;-63
2022/01/14 07:08:30;;;;;;;60.50;24.20;;;2.60;99.90;;;;;;5078190;28;20295;-64
2022/01/14 07:10:56;;;;;;;42.55;22.98;;;2.80;99.90;;;;;;5060530;28;20082;-63
2022/01/14 07:13:22;;;;;;;40.28;23.10;;;2.70;99.90;;;;;;5078013;28;20044;-62
2022/01/14 07:15:48;;;;;;;40.35;22.70;;;2.60;99.90;;;;;;5076314;28;20111;-63
2022/01/14 07:18:16;;;;;;;49.95;23.58;;;2.60;99.90;;;;;;5077892;28;20059;-63
2022/01/14 07:20:42;;;;;;;63.33;24.23;;;2.50;99.90;;;;;;5077156;28;20285;-64
2022/01/14 07:23:07;;;;;;;57.05;21.83;;;2.50;99.90;;;;;;5077966;28;20324;-65
2022/01/14 07:25:33;;;;;;;55.65;25.92;;;3.30;99.90;;;;;;5077060;28;20098;-65
2022/01/14 07:27:59;;;;;;;47.67;24.30;;;3.10;99.90;;;;;;5077803;28;20039;-63
2022/01/14 07:30:25;;;;;;;70.57;26.40;;;2.80;99.90;;;;;;5077623;28;20051;-64
2022/01/14 07:32:51;;;;;;;80.45;25.65;;;2.80;99.90;;;;;;5076841;28;20021;-64
2022/01/14 07:35:24;;;;;;;43.25;26.15;;;2.80;99.90;;;;;;5095143;28;20777;-62
2022/01/14 07:37:50;;;;;;;87.60;28.75;;;2.80;99.90;;;;;;5093564;28;20047;-63
2022/01/14 07:40:16;;;;;;;61.92;26.75;;;2.90;99.90;;;;;;5094743;28;20032;-64
2022/01/14 07:42:42;;;;;;;44.25;26.33;;;2.90;99.90;;;;;;5094174;28;20066;-63
2022/01/14 07:45:08;;;;;;;63.90;27.10;;;2.80;99.90;;;;;;5094601;28;20028;-64
2022/01/14 07:47:34;;;;;;;50.22;25.70;;;2.90;99.90;;;;;;5093847;28;20122;-65
2022/01/14 07:50:00;;;;;;;50.42;26.65;;;3.00;99.90;;;;;;5093671;28;20391;-62
2022/01/14 07:52:25;;;;;;;53.15;27.70;;;3.70;99.90;;;;;;5093091;28;20361;-64
2022/01/14 07:54:51;;;;;;;61.30;27.55;;;3.70;99.90;;;;;;5092928;28;20036;-61
2022/01/14 07:57:18;;;;;;;49.17;26.38;;;3.50;99.90;;;;;;5093957;28;20298;-63
2022/01/14 07:59:44;;;;;;;60.22;26.70;;;3.30;99.90;;;;;;5093931;28;20028;-65
2022/01/14 08:02:12;;;;;;;40.85;26.52;;;3.20;99.90;;;;;;5093788;28;20415;-63
2022/01/14 08:04:38;;;;;;;41.67;26.05;;;3.00;99.90;;;;;;5093859;28;20478;-66
2022/01/14 08:07:11;;;;;;;45.08;26.13;;;3.10;99.90;;;;;;5094009;28;20037;-63
2022/01/14 08:09:41;;;;;;;48.88;26.17;;;3.20;99.90;;;;;;5094333;28;20036;-63
2022/01/14 08:12:08;;;;;;;49.95;26.80;;;3.20;99.90;;;;;;5093507;28;20036;-63
2022/01/14 08:14:34;;;;;;;45.30;25.17;;;3.20;99.90;;;;;;5109989;28;20281;-63
2022/01/14 08:17:00;;;;;;;59.78;27.75;;;3.30;99.90;;;;;;5093530;28;20024;-63
2022/01/14 08:19:25;;;;;;;44.40;26.48;;;3.50;99.90;;;;;;5093529;28;20065;-61
2022/01/14 08:21:51;;;;;;;80.57;28.20;;;3.60;99.90;;;;;;5093420;28;20035;-63
2022/01/14 08:24:17;;;;;;;49.63;26.63;;;3.50;99.90;;;;;;5093410;28;20040;-61
2022/01/14 08:26:43;;;;;;;57.05;26.27;;;3.50;99.90;;;;;;5093821;28;20040;-62
2022/01/14 08:29:09;;;;;;;49.20;27.13;;;3.50;99.90;;;;;;5093267;28;20107;-62
2022/01/14 08:31:35;;;;;;;57.35;28.95;;;3.50;99.90;;;;;;5093197;28;20043;-63
2022/01/14 08:34:00;;;;;;;55.95;25.25;;;3.50;99.90;;;;;;5092947;28;20078;-62
2022/01/14 08:36:29;;;;;;;74.80;29.42;;;3.20;99.90;;;;;;5093483;28;20069;-62
2022/01/14 08:38:55;;;;;;;49.38;24.30;;;3.00;99.90;;;;;;5093192;28;20024;-61
2022/01/14 08:41:21;;;;;;;81.72;25.45;;;2.80;99.90;;;;;;5093735;28;20032;-62
2022/01/14 08:43:47;;;;;;;50.90;25.52;;;3.00;99.90;;;;;;5093028;28;20036;-62
2022/01/14 08:46:16;;;;;;;47.42;25.40;;;3.10;99.90;;;;;;5082317;28;20124;-62
2022/01/14 08:48:42;;;;;;;107.28;25.38;;;3.20;99.90;;;;;;5078742;28;20288;-63
2022/01/14 08:51:08;;;;;;;65.00;25.23;;;3.20;99.90;;;;;;5079497;28;20111;-62
2022/01/14 08:53:34;;;;;;;48.88;25.15;;;3.30;99.90;;;;;;5079579;28;20127;-62
2022/01/14 08:56:00;;;;;;;51.55;26.00;;;3.40;99.90;;;;;;5061875;28;20056;-62
2022/01/14 08:58:27;;;;;;;46.55;25.63;;;3.40;99.90;;;;;;5079375;28;20020;-62
2022/01/14 09:00:53;;;;;;;65.00;25.60;;;3.50;99.90;;;;;;5079348;28;20043;-63
2022/01/14 09:03:19;;;;;;;81.07;24.23;;;3.40;99.90;;;;;;5078617;28;20307;-63
2022/01/14 09:05:45;;;;;;;59.22;23.45;;;3.00;99.90;;;;;;5078667;28;20034;-64
2022/01/14 09:08:11;;;;;;;50.22;23.20;;;2.90;99.90;;;;;;5078774;28;20111;-63
2022/01/14 09:10:37;;;;;;;94.10;24.60;;;2.90;99.90;;;;;;5078322;28;20044;-62
2022/01/14 09:13:03;;;;;;;62.50;25.00;;;2.80;99.90;;;;;;5079068;28;20125;-63
2022/01/14 09:15:30;;;;;;;44.25;24.20;;;3.00;99.90;;;;;;5078536;28;20070;-63
2022/01/14 09:17:56;;;;;;;46.90;26.23;;;3.10;99.90;;;;;;5078733;28;20035;-62
2022/01/14 09:20:21;;;;;;;50.63;25.90;;;3.10;99.90;;;;;;5079048;28;20028;-63
2022/01/14 09:22:49;;;;;;;38.72;23.30;;;3.20;99.90;;;;;;5078301;28;20033;-63
2022/01/14 09:25:17;;;;;;;62.90;26.65;;;3.10;99.90;;;;;;5095625;28;20029;-63
2022/01/14 09:27:43;;;;;;;41.53;24.42;;;3.20;99.90;;;;;;5079162;28;20033;-64
2022/01/14 09:30:09;;;;;;;54.08;25.23;;;3.30;99.90;;;;;;5078167;28;20024;-63
2022/01/14 09:32:35;;;;;;;40.30;24.35;;;3.50;99.90;;;;;;5078803;28;20303;-63
2022/01/14 09:35:03;;;;;;;44.20;24.50;;;3.70;99.90;;;;;;5078625;28;20127;-63
2022/01/14 09:37:29;;;;;;;43.00;23.80;;;3.60;99.90;;;;;;5078599;28;20060;-63
2022/01/14 09:39:55;;;;;;;42.50;22.83;;;3.60;99.90;;;;;;5078929;28;20404;-63
2022/01/14 09:42:21;;;;;;;50.63;22.30;;;3.50;99.90;;;;;;5077846;28;20071;-63
2022/01/14 09:44:47;;;;;;;42.13;23.27;;;3.30;99.90;;;;;;5078569;28;20052;-63
2022/01/14 09:47:20;;;;;;;45.53;23.42;;;3.20;99.90;;;;;;5078441;28;20178;-63
2022/01/14 09:49:47;;;;;;;36.30;23.88;;;3.50;99.90;;;;;;5077680;28;20063;-63
2022/01/14 09:52:14;;;;;;;46.63;23.75;;;3.80;99.90;;;;;;5061612;28;20101;-63
2022/01/14 09:54:41;;;;;;;40.53;24.48;;;4.20;99.90;;;;;;5078313;28;20078;-63
2022/01/14 09:57:08;;;;;;;37.20;23.77;;;4.50;99.90;;;;;;5077328;28;20048;-63
2022/01/14 09:59:35;;;;;;;39.58;23.75;;;4.50;99.90;;;;;;5078231;28;20037;-63
2022/01/14 10:02:01;;;;;;;34.00;22.77;;;4.50;99.90;;;;;;5078188;28;20032;-63
2022/01/14 10:04:27;;;;;;;37.10;24.58;;;4.40;99.90;;;;;;5077288;28;20048;-62
2022/01/14 10:06:55;;;;;;;36.80;22.95;;;4.50;99.90;;;;;;5077996;28;20035;-62
2022/01/14 10:09:29;;;;;;;34.55;22.10;;;4.40;99.90;;;;;;5077179;28;20441;-62
2022/01/14 10:12:13;;;;;;;48.53;24.63;;;4.50;99.90;;;;;;5077926;28;20089;-62
2022/01/14 10:14:51;;;;;;;38.58;24.42;;;4.90;99.90;;;;;;5077849;28;20024;-63
2022/01/14 10:17:17;;;;;;;46.15;25.17;;;4.70;99.90;;;;;;5077849;28;20419;-62
2022/01/14 10:19:44;;;;;;;39.35;24.42;;;4.70;99.90;;;;;;5077852;28;20075;-62
2022/01/14 10:22:21;;;;;;;41.83;24.83;;;4.90;99.90;;;;;;5078286;28;20025;-64
2022/01/14 10:25:02;;;;;;;41.65;24.30;;;4.80;99.90;;;;;;5077720;28;20091;-62
2022/01/14 10:27:49;;;;;;;45.88;26.27;;;5.00;99.90;;;;;;5078137;28;20025;-62
2022/01/14 10:30:23;;;;;;;43.40;26.83;;;5.10;99.90;;;;;;5077603;28;20067;-63
2022/01/14 10:33:08;;;;;;;44.85;25.98;;;5.40;99.90;;;;;;5077776;28;20342;-62
2022/01/14 10:35:42;;;;;;;46.30;25.85;;;5.50;99.90;;;;;;5077082;28;20423;-61
2022/01/14 10:38:17;;;;;;;41.67;25.70;;;5.50;99.90;;;;;;5077547;28;20339;-62
2022/01/14 10:40:44;;;;;;;44.05;24.25;;;5.30;99.90;;;;;;5077996;28;20025;-63
2022/01/14 10:43:12;;;;;;;36.70;24.08;;;5.30;99.90;;;;;;5077368;28;20020;-63
2022/01/14 10:45:39;;;;;;;39.45;23.65;;;5.30;99.90;;;;;;5077262;28;20033;-64
2022/01/14 10:48:06;;;;;;;41.75;24.50;;;5.20;99.90;;;;;;5059935;28;20343;-63
2022/01/14 10:50:38;;;;;;;43.80;25.50;;;5.00;99.90;;;;;;5077342;28;20052;-63
2022/01/14 10:53:21;;;;;;;31.90;19.23;;;5.30;99.90;;;;;;5077193;28;20033;-62
2022/01/14 10:55:52;;;;;;;44.67;25.85;;;5.80;99.90;;;;;;5060841;28;20137;-62
2022/01/14 10:58:25;;;;;;;38.70;24.55;;;5.90;99.90;;;;;;5076480;28;20035;-61
2022/01/14 11:00:59;;;;;;;38.60;24.50;;;5.80;99.90;;;;;;5076548;28;20415;-61
2022/01/14 11:03:40;;;;;;;37.38;24.00;;;5.60;99.90;;;;;;5077360;28;20024;-62
2022/01/14 11:06:21;;;;;;;41.22;24.90;;;5.70;99.90;;;;;;5077132;28;20070;-62
2022/01/14 11:09:03;;;;;;;39.05;24.27;;;5.70;99.90;;;;;;5076860;28;20436;-62
2022/01/14 11:11:32;;;;;;;34.95;23.05;;;5.70;99.90;;;;;;5076342;28;20035;-62
2022/01/14 11:13:58;;;;;;;37.58;23.13;;;6.00;99.90;;;;;;5076124;28;20032;-62
2022/01/14 11:16:25;;;;;;;37.20;22.48;;;6.20;99.90;;;;;;5077024;28;20265;-62
2022/01/14 11:18:51;;;;;;;39.67;23.92;;;6.40;99.90;;;;;;5077240;28;20032;-63
2022/01/14 11:24:04;;;;;;;38.08;23.25;;;6.20;99.90;;;;;;5076900;28;20411;-61
2022/01/14 11:26:36;;;;;;;33.75;22.77;;;7.10;99.90;;;;;;5077471;28;20139;-63
2022/01/14 11:29:13;;;;;;;35.17;23.85;;;7.50;99.90;;;;;;5076872;28;20384;-61
2022/01/14 11:31:40;;;;;;;36.67;23.00;;;7.80;99.90;;;;;;5076875;28;20028;-61
2022/01/14 11:34:30;;;;;;;36.72;22.67;;;7.70;99.90;;;;;;5076581;28;20041;-62
2022/01/14 11:37:14;;;;;;;36.13;22.63;;;8.00;99.90;;;;;;5077268;28;20029;-62
2022/01/14 11:39:53;;;;;;;34.50;23.95;;;8.10;99.90;;;;;;5076795;28;20059;-63
2022/01/14 11:42:19;;;;;;;31.75;22.20;;;8.70;99.90;;;;;;5076762;28;20025;-62
2022/01/14 11:47:37;;;;;;;32.60;22.38;;;9.20;99.90;;;;;;5075893;28;20032;-63
2022/01/14 11:50:27;;;;;;;33.22;22.23;;;9.40;99.90;;;;;;5076726;28;20098;-62
2022/01/14 11:52:54;;;;;;;35.50;22.52;;;9.90;99.90;;;;;;5076355;28;20113;-62
2022/01/14 11:55:36;;;;;;;35.42;23.35;;;9.70;99.90;;;;;;5077185;28;20288;-63
2022/01/14 11:58:09;;;;;;;41.42;24.73;;;9.90;99.90;;;;;;5076928;28;20036;-63
2022/01/14 12:00:39;;;;;;;33.42;22.67;;;9.80;99.90;;;;;;5076926;28;20400;-62
2022/01/14 12:03:07;;;;;;;36.60;23.35;;;9.40;99.90;;;;;;5076708;28;20020;-62
2022/01/14 12:05:37;;;;;;;36.75;23.80;;;9.40;99.90;;;;;;5076468;28;20095;-61
2022/01/14 12:08:07;;;;;;;32.72;22.90;;;9.80;99.90;;;;;;5076405;28;20550;-62
2022/01/14 12:10:37;;;;;;;30.88;21.58;;;9.90;99.90;;;;;;5076411;28;20036;-62
2022/01/14 12:13:41;;;;;;;33.63;22.52;;;9.30;99.90;;;;;;5076636;28;20395;-62
2022/01/14 12:16:19;;;;;;;37.03;22.00;;;8.60;99.90;;;;;;5076351;28;20085;-63
2022/01/14 12:18:57;;;;;;;37.28;23.70;;;8.20;99.90;;;;;;5076279;28;20433;-63
2022/01/14 12:21:40;;;;;;;39.75;25.05;;;8.30;99.90;;;;;;5079174;28;20039;-62
2022/01/14 12:24:15;;;;;;;38.20;23.63;;;8.30;99.90;;;;;;5080047;28;20029;-63
2022/01/14 12:26:42;;;;;;;34.38;23.35;;;8.30;99.90;;;;;;5079985;28;20035;-62
2022/01/14 12:29:16;;;;;;;34.92;24.05;;;8.10;99.90;;;;;;5062439;28;20032;-62
2022/01/14 12:32:03;;;;;;;34.42;23.80;;;7.90;99.90;;;;;;5079229;28;20350;-63
2022/01/14 12:34:34;;;;;;;34.75;23.63;;;8.20;99.90;;;;;;5079627;28;20072;-62
2022/01/14 12:37:00;;;;;;;38.60;26.10;;;8.30;99.90;;;;;;5080332;28;20053;-62
2022/01/14 12:39:26;;;;;;;42.33;27.70;;;8.60;99.90;;;;;;5079855;28;20387;-62
2022/01/14 12:41:57;;;;;;;45.88;30.00;;;8.80;99.90;;;;;;5079732;28;20028;-62
2022/01/14 12:44:24;;;;;;;45.85;28.27;;;9.00;99.90;;;;;;5079631;28;20032;-63
2022/01/14 12:47:05;;;;;;;40.70;27.42;;;9.10;99.90;;;;;;5080125;28;20086;-62
2022/01/14 12:49:39;;;;;;;40.17;25.27;;;9.20;99.90;;;;;;5079753;28;20404;-62
2022/01/14 12:52:06;;;;;;;41.80;25.95;;;9.30;99.90;;;;;;5079457;28;20044;-62
2022/01/14 12:54:35;;;;;;;42.20;25.77;;;9.30;99.90;;;;;;5079342;28;20056;-61
2022/01/14 12:57:02;;;;;;;40.40;25.95;;;9.40;99.90;;;;;;5079340;28;20024;-62
2022/01/14 12:59:36;;;;;;;41.00;26.52;;;9.50;99.90;;;;;;5079340;28;20333;-62
2022/01/14 13:02:02;;;;;;;40.10;25.20;;;9.50;99.90;;;;;;5079682;28;20066;-62
2022/01/14 13:04:28;;;;;;;33.92;22.67;;;9.50;99.90;;;;;;5078391;28;20041;-62
2022/01/14 13:06:56;;;;;;;31.45;23.02;;;9.60;99.90;;;;;;5079189;28;20117;-61
2022/01/14 13:09:30;;;;;;;36.13;24.02;;;9.60;99.90;;;;;;5078357;28;20036;-62
2022/01/14 13:12:06;;;;;;;36.70;25.33;;;9.60;99.90;;;;;;5079389;28;20107;-62